Time;durP1;ratioP1;P1;durP2;ratioP2;P2;SDS_P1;SDS_P2;PMS_P1;PMS_P2;Temp;Humidity;BMP_temperature;BMP_pressure;BME280_temperature;BME280_humidity;BME280_pressure;Samples;Min_cycle;Max_cycle;Signal;HPM_P1;HPM_P2
2023/03/24 02:09:00;;;;;;;35.90;25.47;;;;;;;-143.84;85.65;44668.25;6226111;22;20408;-74
2023/03/24 02:11:30;;;;;;;35.10;23.43;;;;;;;-143.84;85.79;44614.94;5107687;28;20470;-74
2023/03/24 02:13:57;;;;;;;32.53;23.47;;;;;;;-143.84;85.82;44693.00;5109155;28;20446;-74
2023/03/24 02:16:43;;;;;;;31.70;21.80;;;;;;;-143.84;85.82;44635.88;5109332;28;20461;-74
2023/03/24 02:19:49;;;;;;;32.23;22.37;;;;;;;-143.84;85.57;44704.44;5108725;28;20453;-74
2023/03/24 02:22:57;;;;;;;32.60;22.00;;;;;;;-143.84;85.66;44700.63;5109382;28;20510;-74
2023/03/24 02:25:48;;;;;;;37.00;25.80;;;;;;;-143.84;86.05;44567.34;5075192;28;20434;-72
2023/03/24 02:28:25;;;;;;;39.13;23.60;;;;;;;-143.84;86.16;44555.94;5109246;28;20841;-72
2023/03/24 02:31:28;;;;;;;32.83;23.20;;;;;;;-143.84;85.88;44611.13;5109822;28;20447;-72
2023/03/24 02:34:39;;;;;;;28.30;21.30;;;;;;;-143.84;85.66;44700.63;5100345;28;20438;-72
2023/03/24 02:37:36;;;;;;;30.70;21.80;;;;;;;-143.84;85.33;44788.22;5114853;28;20438;-72
2023/03/24 02:40:33;;;;;;;29.77;23.30;;;;;;;-143.84;85.26;44782.50;5115483;28;20447;-72
2023/03/24 02:43:10;;;;;;;33.33;23.73;;;;;;;-143.84;85.54;44717.75;5107054;28;20486;-72
2023/03/24 02:45:44;;;;;;;46.30;24.37;;;;;;;-143.84;85.44;44753.94;5115187;28;20443;-72
2023/03/24 02:48:23;;;;;;;32.83;24.00;;;;;;;-143.84;85.55;44698.72;5115253;28;20443;-72
2023/03/24 02:50:57;;;;;;;36.00;24.10;;;;;;;-143.84;85.70;44704.44;5115470;28;21279;-72
2023/03/24 02:53:31;;;;;;;37.30;23.90;;;;;;;-143.84;85.62;44693.00;5115837;28;20434;-72
2023/03/24 02:56:08;;;;;;;35.20;24.20;;;;;;;-143.84;85.46;44719.66;5115214;28;20467;-72
2023/03/24 02:58:41;;;;;;;34.77;25.17;;;;;;;-143.84;85.51;44736.81;5115130;28;20447;-72
2023/03/24 03:01:13;;;;;;;33.07;24.60;;;;;;;-143.84;85.75;44649.22;5113809;28;20431;-72
2023/03/24 03:03:44;;;;;;;32.10;23.77;;;;;;;-143.84;85.88;44649.22;5114854;28;20986;-72
2023/03/24 03:06:17;;;;;;;32.70;22.43;;;;;;;-143.84;85.75;44660.63;5114998;28;20431;-72
2023/03/24 03:08:47;;;;;;;40.83;24.00;;;;;;;-143.84;85.70;44668.25;5115185;28;20510;-72
2023/03/24 03:11:17;;;;;;;34.90;25.97;;;;;;;-143.84;85.95;44624.47;5114759;28;20510;-72
2023/03/24 03:13:51;;;;;;;33.93;24.33;;;;;;;-143.84;86.08;44592.09;5114561;28;20960;-72
2023/03/24 03:16:24;;;;;;;39.03;26.63;;;;;;;-143.84;86.09;44489.28;5114261;28;20935;-72
2023/03/24 03:18:55;;;;;;;38.83;24.97;;;;;;;-143.84;86.37;44529.28;5114283;28;20441;-72
2023/03/24 03:21:27;;;;;;;33.47;24.70;;;;;;;-143.84;86.30;44563.53;5114041;28;20957;-72
2023/03/24 03:23:58;;;;;;;33.93;24.37;;;;;;;-143.84;86.01;44599.72;5113817;28;20476;-72
2023/03/24 03:26:31;;;;;;;41.63;26.17;;;;;;;-143.84;85.94;44645.41;5114701;28;20438;-72
2023/03/24 03:29:01;;;;;;;33.40;25.40;;;;;;;-143.84;85.85;44702.53;5114294;28;20520;-72
2023/03/24 03:31:34;;;;;;;35.60;23.40;;;;;;;-143.84;85.96;44641.59;5114155;28;20496;-72
2023/03/24 03:34:12;;;;;;;45.43;24.37;;;;;;;-143.84;85.91;44649.22;5113514;28;20967;-72
2023/03/24 03:36:48;;;;;;;33.50;23.00;;;;;;;-143.84;85.88;44614.94;5114264;28;20442;-72
2023/03/24 03:39:21;;;;;;;35.70;24.17;;;;;;;-143.84;85.83;44630.19;5114202;28;20936;-72
2023/03/24 03:41:49;;;;;;;35.33;25.10;;;;;;;-143.84;86.00;44599.72;5114023;28;20435;-72
2023/03/24 03:44:17;;;;;;;35.20;22.60;;;;;;;-143.84;86.14;44580.69;5113402;28;20500;-72
2023/03/24 03:46:44;;;;;;;30.80;22.17;;;;;;;-143.84;86.24;44559.72;5113858;28;20435;-72
2023/03/24 03:49:11;;;;;;;30.97;22.70;;;;;;;-143.84;86.29;44569.25;5114233;28;20454;-72
2023/03/24 03:51:39;;;;;;;35.20;23.87;;;;;;;-143.84;86.42;44544.50;5113979;28;20452;-72
2023/03/24 03:54:10;;;;;;;41.60;25.57;;;;;;;-143.84;86.41;44548.31;5113933;28;20439;-72
2023/03/24 03:56:38;;;;;;;36.80;24.20;;;;;;;-143.84;86.55;44462.63;5113856;28;20492;-70
2023/03/24 03:59:07;;;;;;;35.90;23.57;;;;;;;-143.84;86.37;44536.88;5113976;28;20435;-70
2023/03/24 04:01:40;;;;;;;29.30;23.00;;;;;;;-143.84;86.34;44521.66;5113997;28;20508;-70
2023/03/24 04:04:40;;;;;;;34.27;23.50;;;;;;;-143.84;86.27;44554.03;5113827;28;20583;-70
2023/03/24 04:07:15;;;;;;;38.57;24.23;;;;;;;-143.84;86.26;44584.47;5113979;28;20426;-70
2023/03/24 04:09:52;;;;;;;35.20;23.77;;;;;;;-143.84;86.28;44531.19;5104258;28;20460;-70
2023/03/24 04:12:35;;;;;;;42.20;23.87;;;;;;;-143.84;86.55;44487.38;5093159;28;21179;-70
2023/03/24 04:15:33;;;;;;;36.33;22.60;;;;;;;-143.84;86.76;44447.41;5093302;28;20442;-70
2023/03/24 04:18:49;;;;;;;39.77;24.50;;;;;;;-143.84;86.77;44359.84;5093063;28;20448;-70
2023/03/24 04:21:38;;;;;;;37.73;23.70;;;;;;;-143.84;86.94;44238.00;5047021;28;20455;-68
2023/03/24 04:24:25;;;;;;;27.77;21.67;;;;;;;-143.84;86.98;44285.59;5092471;28;20505;-68
2023/03/24 04:26:59;;;;;;;33.70;21.70;;;;;;;-143.84;87.79;44045.72;5094212;28;20539;-68
2023/03/24 04:29:35;;;;;;;36.43;23.03;;;;;;;-143.84;88.10;43994.31;5091122;28;20946;-68
2023/03/24 04:32:18;;;;;;;32.80;23.70;;;;;;;-143.84;87.96;44057.16;5090998;28;20453;-67
2023/03/24 04:34:49;;;;;;;35.50;22.60;;;;;;;-143.84;87.60;44123.78;5090703;28;20523;-68
2023/03/24 04:37:21;;;;;;;29.80;21.87;;;;;;;-143.84;87.28;44205.63;5090967;28;20467;-69
2023/03/24 04:39:50;;;;;;;27.60;22.63;;;;;;;-143.84;87.13;44198.00;5090846;28;20463;-70
2023/03/24 04:42:21;;;;;;;34.20;22.70;;;;;;;-143.84;87.30;44175.16;5090369;28;20453;-71
2023/03/24 04:44:50;;;;;;;37.30;23.03;;;;;;;-143.84;87.74;44133.28;5090146;28;20436;-71
2023/03/24 04:47:21;;;;;;;34.10;21.00;;;;;;;-143.84;87.56;44083.78;5091349;28;20536;-72
2023/03/24 04:49:48;;;;;;;26.90;19.80;;;;;;;-143.84;87.79;44074.28;5090475;28;20519;-71
2023/03/24 04:52:16;;;;;;;33.97;21.87;;;;;;;-143.84;88.40;43954.34;5090972;28;20455;-71
2023/03/24 04:54:43;;;;;;;27.67;21.50;;;;;;;-143.84;88.72;43899.16;5091699;28;20444;-72
2023/03/24 04:57:10;;;;;;;35.97;24.30;;;;;;;-143.84;88.87;43872.50;5089890;28;20441;-72
2023/03/24 04:59:41;;;;;;;33.00;24.27;;;;;;;-143.84;88.96;43891.53;5088762;28;21067;-72
2023/03/24 05:02:14;;;;;;;36.10;24.03;;;;;;;-143.84;90.23;43834.44;5089985;28;20456;-73
2023/03/24 05:04:42;;;;;;;34.80;23.47;;;;;;;-143.84;90.54;43845.84;5089789;28;20451;-73
2023/03/24 05:07:10;;;;;;;38.67;24.60;;;;;;;-143.84;89.68;43838.25;5090290;28;20437;-73
2023/03/24 05:09:37;;;;;;;32.20;22.93;;;;;;;-143.84;87.82;43929.59;5088377;28;20921;-73
2023/03/24 05:12:05;;;;;;;25.90;20.97;;;;;;;-143.84;86.58;44163.75;5088467;28;20879;-73
2023/03/24 05:14:32;;;;;;;22.57;19.13;;;;;;;-143.84;85.24;44517.84;5088654;28;20523;-73
2023/03/24 05:16:59;;;;;;;33.17;22.40;;;;;;;-143.84;82.05;45010.97;5106642;28;20515;-73
2023/03/24 05:19:26;;;;;;;26.70;20.63;;;;;;;-143.84;79.96;45068.13;5108972;28;20435;-73
2023/03/24 05:21:55;;;;;;;25.33;19.70;;;;;;;-143.84;76.90;45142.38;5108091;28;20443;-73
2023/03/24 05:24:22;;;;;;;25.17;19.80;;;;;;;-143.84;74.40;45151.91;5108363;28;20561;-73
2023/03/24 05:26:49;;;;;;;22.70;18.03;;;;;;;-143.84;72.52;45159.50;5109298;28;20510;-73
2023/03/24 05:29:16;;;;;;;21.63;17.37;;;;;;;-143.84;72.65;45159.50;5109211;28;20434;-73
2023/03/24 05:31:44;;;;;;;25.77;20.13;;;;;;;-143.84;69.63;45144.28;5109498;28;20444;-73
2023/03/24 05:34:11;;;;;;;34.00;26.90;;;;;;;-143.84;68.15;45151.91;5108905;28;20492;-73
2023/03/24 05:36:39;;;;;;;27.03;21.70;;;;;;;-143.84;68.91;45150.00;5104363;28;20523;-73
2023/03/24 05:39:08;;;;;;;30.03;22.57;;;;;;;-143.84;69.48;45144.28;5088500;28;20447;-73
2023/03/24 05:41:35;;;;;;;30.50;22.60;;;;;;;-143.84;69.12;45134.75;5089317;28;20524;-73
2023/03/24 05:44:02;;;;;;;26.13;19.80;;;;;;;-143.84;66.70;45150.00;5094704;28;20483;-73
2023/03/24 05:46:29;;;;;;;30.23;22.80;;;;;;;-143.84;67.49;45146.19;5094928;28;20886;-72
2023/03/24 05:48:57;;;;;;;32.17;23.50;;;;;;;-143.84;67.10;45142.38;5097234;28;20450;-72
2023/03/24 05:51:24;;;;;;;35.03;25.90;;;;;;;-143.84;66.16;45148.09;5109322;28;20480;-72
2023/03/24 05:53:52;;;;;;;41.57;26.03;;;;;;;-143.84;65.79;45161.41;5102022;28;20473;-72
2023/03/24 05:56:20;;;;;;;28.37;21.60;;;;;;;-143.84;62.57;45142.38;5109259;28;20436;-72
2023/03/24 05:58:47;;;;;;;35.43;23.77;;;;;;;-143.84;59.78;45148.09;5109685;28;20447;-72
2023/03/24 06:01:17;;;;;;;33.70;24.20;;;;;;;-143.84;61.10;45125.22;5109716;28;20443;-72
2023/03/24 06:03:44;;;;;;;42.30;25.13;;;;;;;-143.84;60.32;45150.00;5109177;28;20520;-72
2023/03/24 06:06:15;;;;;;;32.53;24.80;;;;;;;-143.84;60.52;45138.56;5108837;28;20439;-72
2023/03/24 06:08:43;;;;;;;26.40;21.60;;;;;;;-143.84;60.49;45140.47;5109174;28;20523;-72
2023/03/24 06:11:12;;;;;;;33.47;25.07;;;;;;;-143.84;59.85;45136.66;5108684;28;20478;-72
2023/03/24 06:13:40;;;;;;;31.27;25.60;;;;;;;-143.84;59.67;45142.38;5108339;28;20473;-72
2023/03/24 06:16:08;;;;;;;38.43;25.07;;;;;;;-143.84;60.50;45134.75;5109387;28;20447;-72
2023/03/24 06:18:35;;;;;;;29.90;23.07;;;;;;;-143.84;57.92;45146.19;5108500;28;20442;-72
2023/03/24 06:21:02;;;;;;;32.83;22.10;;;;;;;-143.84;56.37;45123.34;5109072;28;20442;-72
2023/03/24 06:23:30;;;;;;;37.90;22.20;;;;;;;-143.84;55.14;45148.09;5109078;28;20478;-72
2023/03/24 06:26:00;;;;;;;31.37;21.70;;;;;;;-143.84;52.74;45136.66;5109163;28;20979;-72
2023/03/24 06:28:29;;;;;;;29.43;20.83;;;;;;;-143.84;49.75;45094.78;5109411;28;20528;-72
2023/03/24 06:30:58;;;;;;;28.00;20.33;;;;;;;-143.84;49.84;45148.09;5109141;28;20530;-72
2023/03/24 06:33:25;;;;;;;42.10;22.43;;;;;;;-143.84;49.77;45140.47;5109423;28;20431;-72
2023/03/24 06:35:53;;;;;;;36.87;22.70;;;;;;;-143.84;50.33;45117.63;5109480;28;20526;-72
2023/03/24 06:38:21;;;;;;;24.27;18.97;;;;;;;-143.84;46.35;45130.94;5109188;28;21327;-72
2023/03/24 06:40:48;;;;;;;22.60;18.47;;;;;;;-143.84;47.37;45130.94;5109321;28;20492;-72
2023/03/24 06:43:15;;;;;;;30.47;18.93;;;;;;;-143.84;46.97;45142.38;5109011;28;20540;-72
2023/03/24 06:45:44;;;;;;;25.27;19.40;;;;;;;-143.84;47.12;45138.56;5108590;28;20439;-72
2023/03/24 06:48:12;;;;;;;25.10;20.03;;;;;;;-143.84;47.37;45113.81;5107867;28;20447;-72
2023/03/24 06:50:39;;;;;;;32.63;18.83;;;;;;;-143.84;46.69;45125.22;5108268;28;20932;-72
2023/03/24 06:53:06;;;;;;;29.20;20.23;;;;;;;-143.84;44.88;45094.78;5108248;28;20499;-72
2023/03/24 06:55:33;;;;;;;25.63;17.80;;;;;;;-143.84;45.60;45117.63;5108251;28;20446;-72
2023/03/24 06:58:01;;;;;;;28.73;17.90;;;;;;;-143.84;45.72;45121.44;5108223;28;20817;-72
2023/03/24 07:00:29;;;;;;;24.17;17.87;;;;;;;-143.84;46.04;45140.47;5108799;28;20435;-72
2023/03/24 07:02:56;;;;;;;25.83;17.93;;;;;;;-143.84;46.84;45127.13;5108553;28;20522;-72
2023/03/24 07:05:24;;;;;;;23.03;19.93;;;;;;;-143.84;45.29;45136.66;5108685;28;20496;-72
2023/03/24 07:07:51;;;;;;;21.20;17.97;;;;;;;-143.84;45.24;45148.09;5108952;28;20442;-72
2023/03/24 07:10:20;;;;;;;32.70;17.67;;;;;;;-143.84;46.44;45130.94;5108027;28;20555;-72
2023/03/24 07:12:47;;;;;;;23.23;17.93;;;;;;;-143.84;45.72;45119.53;5107992;28;20443;-72
2023/03/24 07:15:15;;;;;;;24.83;20.70;;;;;;;-143.84;45.09;45132.84;5108579;28;20446;-72
2023/03/24 07:17:42;;;;;;;29.07;18.80;;;;;;;-143.84;46.04;45144.28;5108867;28;20472;-72
2023/03/24 07:20:10;;;;;;;23.93;18.07;;;;;;;-143.84;45.57;45134.75;5112132;28;20427;-72
2023/03/24 07:22:38;;;;;;;30.83;17.80;;;;;;;-143.84;45.93;45146.19;5112268;28;20446;-72
2023/03/24 07:25:06;;;;;;;28.00;19.60;;;;;;;-143.84;47.51;45102.38;5112128;28;21059;-72
2023/03/24 07:27:34;;;;;;;36.13;19.40;;;;;;;-143.84;46.95;45119.53;5112110;28;20440;-71
2023/03/24 07:30:02;;;;;;;30.80;18.90;;;;;;;-143.84;46.42;45113.81;5112213;28;20431;-71
2023/03/24 07:32:33;;;;;;;27.57;18.97;;;;;;;-143.84;47.64;45106.19;5111926;28;20997;-72
2023/03/24 07:35:01;;;;;;;28.43;21.17;;;;;;;-143.84;46.16;45142.38;5101905;28;20474;-72
2023/03/24 07:37:28;;;;;;;26.70;20.07;;;;;;;-143.84;45.77;45129.03;5091613;28;20820;-72
2023/03/24 07:39:57;;;;;;;29.43;22.03;;;;;;;-143.84;46.38;45142.38;5091699;28;20505;-72
2023/03/24 07:42:25;;;;;;;24.80;19.70;;;;;;;-143.84;45.71;45129.03;5091568;28;20540;-72
2023/03/24 07:44:52;;;;;;;32.33;20.47;;;;;;;-143.84;46.06;45132.84;5091613;28;20574;-72
2023/03/24 07:47:19;;;;;;;23.47;18.77;;;;;;;-143.84;46.66;45110.00;5091517;28;20802;-72
2023/03/24 07:49:46;;;;;;;37.50;21.37;;;;;;;-143.84;47.45;45123.34;5091170;28;20817;-72
2023/03/24 07:52:13;;;;;;;31.83;21.40;;;;;;;-143.84;46.52;45130.94;5091226;28;20473;-72
2023/03/24 07:54:40;;;;;;;31.27;20.23;;;;;;;-143.84;48.20;45121.44;5091412;28;20953;-72
2023/03/24 07:57:09;;;;;;;31.47;26.30;;;;;;;-143.84;46.92;45106.19;5091682;28;20505;-72
2023/03/24 07:59:36;;;;;;;35.20;25.13;;;;;;;-143.84;45.75;45121.44;5091094;28;20451;-72
2023/03/24 08:02:04;;;;;;;39.70;25.50;;;;;;;-143.84;45.78;45140.47;5091209;28;20449;-72
2023/03/24 08:04:32;;;;;;;30.60;21.33;;;;;;;-143.84;45.97;45150.00;5090904;28;21062;-72
2023/03/24 08:06:59;;;;;;;35.47;24.50;;;;;;;-143.84;45.31;45121.44;5091019;28;20852;-72
2023/03/24 08:09:26;;;;;;;41.53;27.20;;;;;;;-143.84;47.01;45117.63;5090957;28;20541;-72
2023/03/24 08:11:53;;;;;;;36.47;29.93;;;;;;;-143.84;48.00;45117.63;5090926;28;20440;-72
2023/03/24 08:14:22;;;;;;;39.10;28.93;;;;;;;-143.84;46.54;45138.56;5091123;28;20493;-72
2023/03/24 08:16:49;;;;;;;40.57;29.67;;;;;;;-143.84;47.05;45129.03;5090675;28;20444;-72
2023/03/24 08:19:16;;;;;;;34.87;28.03;;;;;;;-143.84;47.12;45132.84;5090579;28;20498;-71
2023/03/24 08:21:43;;;;;;;42.17;29.00;;;;;;;-143.84;46.69;45130.94;5091149;28;20448;-71
2023/03/24 08:24:10;;;;;;;33.10;25.60;;;;;;;-143.84;46.91;45132.84;5090551;28;20541;-71
2023/03/24 08:26:37;;;;;;;30.47;24.37;;;;;;;-143.84;46.94;45146.19;5090098;28;20434;-71
2023/03/24 08:29:05;;;;;;;31.43;24.10;;;;;;;-143.84;48.74;45129.03;5089764;28;20482;-71
2023/03/24 08:31:34;;;;;;;28.03;22.30;;;;;;;-143.84;47.57;45108.09;5090556;28;20428;-71
2023/03/24 08:34:01;;;;;;;28.93;21.50;;;;;;;-143.84;49.16;45144.28;5090450;28;20869;-71
2023/03/24 08:36:28;;;;;;;27.80;20.73;;;;;;;-143.84;47.17;45153.81;5090514;28;20440;-71
2023/03/24 08:38:56;;;;;;;26.50;20.37;;;;;;;-143.84;47.49;45146.19;5090278;28;21203;-71
2023/03/24 08:41:33;;;;;;;28.67;20.23;;;;;;;-143.84;48.08;45138.56;5090267;28;20435;-71
2023/03/24 08:44:02;;;;;;;33.37;20.30;;;;;;;-143.84;50.55;45132.84;5090477;28;20479;-71
2023/03/24 08:46:29;;;;;;;36.50;22.30;;;;;;;-143.84;49.60;45136.66;5090361;28;20452;-71
2023/03/24 08:48:58;;;;;;;27.83;19.03;;;;;;;-143.84;51.93;45138.56;5090253;28;20448;-72
2023/03/24 08:51:27;;;;;;;20.40;16.97;;;;;;;-143.84;49.31;45132.84;5090185;28;20509;-72
2023/03/24 08:53:54;;;;;;;21.73;17.43;;;;;;;-143.84;47.34;45151.91;5090052;28;20444;-72
2023/03/24 08:56:22;;;;;;;28.30;18.43;;;;;;;-143.84;49.52;45127.13;5090040;28;21069;-72
2023/03/24 08:58:52;;;;;;;20.70;16.13;;;;;;;-143.84;48.97;45138.56;5089569;28;20436;-72
2023/03/24 09:01:19;;;;;;;21.23;16.97;;;;;;;-143.84;47.06;45130.94;5088795;28;20502;-72
2023/03/24 09:03:47;;;;;;;17.90;16.00;;;;;;;-143.84;47.22;45102.38;5089449;28;20440;-72
2023/03/24 09:06:16;;;;;;;21.40;17.17;;;;;;;-143.84;50.01;45110.00;5089545;28;20473;-72
2023/03/24 09:08:43;;;;;;;19.60;15.57;;;;;;;-143.84;47.19;45119.53;5089524;28;20957;-72
2023/03/24 09:11:15;;;;;;;28.57;16.37;;;;;;;-143.84;47.46;45138.56;5089443;28;20472;-72
2023/03/24 09:13:43;;;;;;;17.70;15.10;;;;;;;-143.84;47.19;45106.19;5089663;28;20447;-72
2023/03/24 09:16:10;;;;;;;27.40;17.43;;;;;;;-143.84;46.35;45130.94;5091105;28;20458;-72
2023/03/24 09:18:37;;;;;;;15.70;14.00;;;;;;;-143.84;46.82;45115.72;5110027;28;20426;-71
2023/03/24 09:21:05;;;;;;;15.43;13.77;;;;;;;-143.84;48.26;45108.09;5110119;28;20442;-71
2023/03/24 09:23:34;;;;;;;20.20;15.47;;;;;;;-143.84;47.97;45142.38;5109987;28;20438;-71
2023/03/24 09:26:03;;;;;;;23.30;15.10;;;;;;;-143.84;47.87;45127.13;5109884;28;20522;-71
2023/03/24 09:28:30;;;;;;;21.73;15.10;;;;;;;-143.84;47.04;45113.81;5109855;28;20442;-71
2023/03/24 09:30:58;;;;;;;28.00;15.17;;;;;;;-143.84;45.58;45115.72;5109930;28;20504;-71
2023/03/24 09:33:25;;;;;;;19.00;15.83;;;;;;;-143.84;46.26;45136.66;5109830;28;20492;-71
2023/03/24 09:35:56;;;;;;;18.40;16.40;;;;;;;-143.84;48.13;45110.00;5108957;28;21036;-71
2023/03/24 09:38:23;;;;;;;17.23;15.33;;;;;;;-143.84;48.73;45138.56;5109844;28;20446;-71
2023/03/24 09:40:56;;;;;;;19.53;14.77;;;;;;;-143.84;46.58;45108.09;5109079;28;21009;-72
2023/03/24 09:43:31;;;;;;;20.63;15.83;;;;;;;-143.84;46.43;45094.78;5109745;28;20467;-73
2023/03/24 09:46:01;;;;;;;21.43;16.67;;;;;;;-143.84;46.41;45140.47;5109625;28;21155;-73
2023/03/24 09:48:35;;;;;;;23.30;15.50;;;;;;;-143.84;44.88;45119.53;5109794;28;20434;-73
2023/03/24 09:51:07;;;;;;;25.80;15.40;;;;;;;-143.84;45.56;45151.91;5110125;28;20443;-72
2023/03/24 09:53:43;;;;;;;19.33;15.80;;;;;;;-143.84;45.72;45144.28;5108867;28;20442;-74
2023/03/24 09:56:16;;;;;;;38.10;21.57;;;;;;;-143.84;46.01;45127.13;5110033;28;20539;-72
2023/03/24 09:58:46;;;;;;;19.87;15.70;;;;;;;-143.84;46.97;45119.53;5109907;28;20448;-72
2023/03/24 10:01:14;;;;;;;19.20;16.23;;;;;;;-143.84;47.12;45144.28;5109906;28;20496;-73
2023/03/24 10:03:42;;;;;;;20.43;16.53;;;;;;;-143.84;46.99;45121.44;5109620;28;20951;-72
2023/03/24 10:06:16;;;;;;;29.73;16.23;;;;;;;-143.84;47.10;45121.44;5109847;28;20497;-72
2023/03/24 10:08:46;;;;;;;23.20;16.50;;;;;;;-143.84;47.63;45121.44;5110053;28;20431;-72
2023/03/24 10:11:23;;;;;;;22.43;17.00;;;;;;;-143.84;46.80;45115.72;5109474;28;20474;-72
2023/03/24 10:14:00;;;;;;;25.97;16.77;;;;;;;-143.84;47.18;45125.22;5109464;28;20439;-72
2023/03/24 10:16:34;;;;;;;21.40;16.70;;;;;;;-143.84;45.68;45104.28;5109492;28;20522;-72
2023/03/24 10:19:10;;;;;;;19.43;16.30;;;;;;;-143.84;45.44;45130.94;5109365;28;20496;-72
2023/03/24 10:21:43;;;;;;;18.50;16.00;;;;;;;-143.84;45.61;45134.75;5109436;28;21060;-72
2023/03/24 10:24:18;;;;;;;19.60;15.30;;;;;;;-143.84;45.61;45132.84;5109172;28;20443;-73
2023/03/24 10:26:53;;;;;;;18.80;16.73;;;;;;;-143.84;45.55;45142.38;5109651;28;20430;-72
2023/03/24 10:29:25;;;;;;;24.27;16.03;;;;;;;-143.84;47.19;45123.34;5109931;28;20450;-73
2023/03/24 10:31:57;;;;;;;24.37;16.80;;;;;;;-143.84;46.41;45111.91;5109745;28;20860;-72
2023/03/24 10:34:29;;;;;;;26.90;16.70;;;;;;;-143.84;45.77;45113.81;5109490;28;20492;-72
2023/03/24 10:36:59;;;;;;;21.03;16.00;;;;;;;-143.84;44.62;45153.81;5109754;28;20504;-72
2023/03/24 10:39:26;;;;;;;16.83;14.20;;;;;;;-143.84;47.21;45146.19;5109435;28;20442;-72
2023/03/24 10:41:57;;;;;;;23.70;17.87;;;;;;;-143.84;45.60;45108.09;5109642;28;20434;-72
2023/03/24 10:44:24;;;;;;;19.60;14.87;;;;;;;-143.84;46.15;45138.56;5109225;28;20577;-72
2023/03/24 10:46:55;;;;;;;18.87;14.60;;;;;;;-143.84;47.06;45098.56;5109326;28;20449;-72
2023/03/24 10:49:23;;;;;;;19.93;13.70;;;;;;;-143.84;47.15;45125.22;5109228;28;20978;-72
2023/03/24 10:51:55;;;;;;;21.27;14.47;;;;;;;-143.84;48.06;45140.47;5109946;28;21006;-72
2023/03/24 10:54:24;;;;;;;15.40;13.80;;;;;;;-143.84;47.54;45132.84;5113039;28;20653;-72
2023/03/24 10:57:01;;;;;;;18.43;15.27;;;;;;;-143.84;47.19;45121.44;5113074;28;20415;-72
2023/03/24 10:59:32;;;;;;;16.90;14.57;;;;;;;-143.84;47.85;45117.63;5113033;28;20948;-72
2023/03/24 11:02:15;;;;;;;37.47;18.03;;;;;;;-143.84;49.85;45144.28;5112900;28;20523;-72
2023/03/24 11:04:49;;;;;;;26.80;18.57;;;;;;;-143.84;50.03;45110.00;5113029;28;20478;-73
2023/03/24 11:07:19;;;;;;;25.70;19.23;;;;;;;-143.84;49.42;45172.84;5112924;28;20507;-73
2023/03/24 11:09:56;;;;;;;28.53;18.80;;;;;;;-143.84;50.93;45138.56;5112082;28;20487;-73
2023/03/24 11:12:25;;;;;;;22.40;17.30;;;;;;;-143.84;49.22;45125.22;5112167;28;20530;-72
2023/03/24 11:15:02;;;;;;;19.97;15.70;;;;;;;-143.84;48.70;45121.44;5111400;28;20443;-73
2023/03/24 11:17:29;;;;;;;21.77;16.53;;;;;;;-143.84;53.92;45136.66;5112166;28;20442;-72
2023/03/24 11:19:57;;;;;;;19.33;16.10;;;;;;;-143.84;49.05;45134.75;5111938;28;20446;-72
2023/03/24 11:22:25;;;;;;;30.90;16.93;;;;;;;-143.84;50.16;45142.38;5112195;28;20960;-73
2023/03/24 11:24:56;;;;;;;21.57;15.83;;;;;;;-143.84;50.35;45146.19;5112570;28;20480;-73
2023/03/24 11:27:23;;;;;;;26.90;18.90;;;;;;;-143.84;50.53;45144.28;5111268;28;20434;-73
2023/03/24 11:29:54;;;;;;;24.53;16.70;;;;;;;-143.84;49.65;45125.22;5111220;28;20435;-73
2023/03/24 11:32:25;;;;;;;27.50;17.40;;;;;;;-143.84;48.60;45140.47;5111317;28;20886;-73
2023/03/24 11:35:03;;;;;;;25.43;17.37;;;;;;;-143.84;47.42;45115.72;5112400;28;20810;-73
2023/03/24 11:37:34;;;;;;;23.80;15.70;;;;;;;-143.84;48.76;45148.09;5112232;28;21019;-73
2023/03/24 11:40:19;;;;;;;27.93;16.43;;;;;;;-143.84;49.14;45121.44;5111880;28;20520;-73
2023/03/24 11:42:49;;;;;;;22.90;15.30;;;;;;;-143.84;50.53;45140.47;5112460;28;20435;-73
2023/03/24 11:45:37;;;;;;;19.17;13.93;;;;;;;-143.84;49.97;45127.13;5112430;28;21003;-73
2023/03/24 11:48:14;;;;;;;27.37;15.63;;;;;;;-143.84;49.62;45127.13;5112474;28;20940;-73
2023/03/24 11:50:42;;;;;;;19.37;15.30;;;;;;;-143.84;48.11;45115.72;5112573;28;20435;-73
2023/03/24 11:53:17;;;;;;;17.50;14.20;;;;;;;-143.84;50.27;45106.19;5112352;28;20504;-73
2023/03/24 11:55:52;;;;;;;18.63;14.23;;;;;;;-143.84;50.92;45153.81;5112420;28;21055;-73
2023/03/24 11:58:31;;;;;;;17.47;13.13;;;;;;;-143.84;51.22;45136.66;5112423;28;20533;-73
2023/03/24 12:01:06;;;;;;;15.70;12.57;;;;;;;-143.84;48.33;45136.66;5112175;28;20451;-73
2023/03/24 12:04:07;;;;;;;17.07;13.57;;;;;;;-143.84;48.92;45125.22;5111861;28;20862;-73
2023/03/24 12:06:47;;;;;;;22.87;14.30;;;;;;;-143.84;49.48;45136.66;5112539;28;20479;-73
2023/03/24 12:09:23;;;;;;;21.90;15.53;;;;;;;-143.84;47.49;45148.09;5111917;28;20447;-73
2023/03/24 12:12:08;;;;;;;17.50;14.40;;;;;;;-143.84;46.49;45140.47;5111634;28;20446;-73
2023/03/24 12:14:47;;;;;;;24.00;14.50;;;;;;;-143.84;48.55;45134.75;5111319;28;20431;-73
2023/03/24 12:17:22;;;;;;;16.27;14.47;;;;;;;-143.84;49.31;45111.91;5111578;28;20494;-73
2023/03/24 12:20:05;;;;;;;27.63;16.77;;;;;;;-143.84;47.49;45119.53;5111533;28;20470;-74
2023/03/24 12:22:50;;;;;;;16.40;13.50;;;;;;;-143.84;47.73;45134.75;5112105;28;20533;-74
2023/03/24 12:25:29;;;;;;;19.90;14.30;;;;;;;-143.84;49.79;45142.38;5112291;28;20908;-73
2023/03/24 12:28:07;;;;;;;21.37;15.80;;;;;;;-143.84;50.21;45144.28;5112389;28;20986;-73
2023/03/24 12:30:42;;;;;;;17.43;14.63;;;;;;;-143.84;50.79;45151.91;5112223;28;20503;-74
2023/03/24 12:33:30;;;;;;;18.87;16.10;;;;;;;-143.84;48.83;45163.31;5112571;28;20559;-73
2023/03/24 12:36:14;;;;;;;17.77;15.30;;;;;;;-143.84;49.56;45125.22;5112064;28;20454;-73
2023/03/24 12:38:56;;;;;;;15.90;14.20;;;;;;;-143.84;47.44;45151.91;5111905;28;20469;-73
2023/03/24 12:41:41;;;;;;;16.60;14.03;;;;;;;-143.84;47.90;45134.75;5111386;28;20434;-73
2023/03/24 12:44:23;;;;;;;19.47;14.93;;;;;;;-143.84;49.54;45146.19;5111534;28;20438;-74
2023/03/24 12:46:59;;;;;;;19.10;15.63;;;;;;;-143.84;49.29;45129.03;5111606;28;20477;-73
2023/03/24 12:49:44;;;;;;;20.43;15.60;;;;;;;-143.84;49.71;45148.09;5111286;28;20527;-73
2023/03/24 12:52:25;;;;;;;25.87;15.20;;;;;;;-143.84;49.70;45138.56;5111584;28;20519;-74
2023/03/24 12:55:05;;;;;;;19.40;14.70;;;;;;;-143.84;51.39;45157.59;5111767;28;20441;-73
2023/03/24 12:57:37;;;;;;;22.43;14.17;;;;;;;-143.84;50.81;45134.75;5111892;28;20839;-73
2023/03/24 13:00:11;;;;;;;17.03;14.70;;;;;;;-143.84;52.16;45150.00;5111835;28;21146;-73
2023/03/24 13:02:43;;;;;;;17.40;14.27;;;;;;;-143.84;54.66;45138.56;5111807;28;20529;-74
2023/03/24 13:05:17;;;;;;;18.13;14.07;;;;;;;-143.84;53.57;45153.81;5111641;28;20472;-73
2023/03/24 13:07:47;;;;;;;21.00;15.80;;;;;;;-143.84;54.12;45144.28;5111265;28;20449;-73
2023/03/24 13:10:19;;;;;;;21.40;14.23;;;;;;;-143.84;54.58;45144.28;5111172;28;20577;-73
2023/03/24 13:12:53;;;;;;;17.93;15.13;;;;;;;-143.84;56.12;45129.03;5111223;28;20441;-73
2023/03/24 13:15:24;;;;;;;21.83;13.60;;;;;;;-143.84;54.49;45161.41;5111084;28;20445;-73
2023/03/24 13:17:57;;;;;;;25.20;15.57;;;;;;;-143.84;56.62;45142.38;5111267;28;20488;-73
2023/03/24 13:20:32;;;;;;;17.60;13.30;;;;;;;-143.84;55.15;45155.69;5102531;28;20453;-76
2023/03/24 13:23:04;;;;;;;34.00;22.03;;;;;;;-143.84;54.87;45136.66;5110960;28;21206;-73
2023/03/24 13:25:42;;;;;;;26.40;18.27;;;;;;;-143.84;55.81;45161.41;5111464;28;20504;-75
2023/03/24 13:28:13;;;;;;;19.47;14.80;;;;;;;-143.84;58.10;45167.13;5109809;28;20508;-76
2023/03/24 13:30:42;;;;;;;15.97;14.27;;;;;;;-143.84;57.07;45148.09;5109571;28;20439;-75
2023/03/24 13:33:16;;;;;;;21.70;15.30;;;;;;;-143.84;56.54;45159.50;5109825;28;20516;-75